sensor_id;sensor_type;location;lat;lon;timestamp;P1;durP1;ratioP1;P2;durP2;ratioP2
20908;SDS011;10614;53.198;6.570;2022-10-16T00:00:47;3.25;;;0.90;;
20908;SDS011;10614;53.198;6.570;2022-10-16T00:02:49;3.08;;;1.05;;
20908;SDS011;10614;53.198;6.570;2022-10-16T00:04:50;2.13;;;0.70;;
20908;SDS011;10614;53.198;6.570;2022-10-16T00:06:52;2.03;;;0.90;;
20908;SDS011;10614;53.198;6.570;2022-10-16T00:08:54;3.95;;;1.30;;
20908;SDS011;10614;53.198;6.570;2022-10-16T00:10:59;1.45;;;0.88;;
20908;SDS011;10614;53.198;6.570;2022-10-16T00:13:01;3.10;;;0.80;;
20908;SDS011;10614;53.198;6.570;2022-10-16T00:15:05;4.60;;;1.10;;
20908;SDS011;10614;53.198;6.570;2022-10-16T00:17:07;2.35;;;1.05;;
20908;SDS011;10614;53.198;6.570;2022-10-16T00:19:09;1.45;;;0.80;;
20908;SDS011;10614;53.198;6.570;2022-10-16T00:21:13;8.57;;;1.17;;
20908;SDS011;10614;53.198;6.570;2022-10-16T00:23:17;2.33;;;1.08;;
20908;SDS011;10614;53.198;6.570;2022-10-16T00:25:18;2.63;;;1.02;;
20908;SDS011;10614;53.198;6.570;2022-10-16T00:27:20;2.70;;;0.98;;
20908;SDS011;10614;53.198;6.570;2022-10-16T00:29:21;1.95;;;0.85;;
20908;SDS011;10614;53.198;6.570;2022-10-16T00:31:25;3.15;;;0.80;;
20908;SDS011;10614;53.198;6.570;2022-10-16T00:33:26;1.40;;;0.65;;
20908;SDS011;10614;53.198;6.570;2022-10-16T00:35:28;2.03;;;0.90;;
20908;SDS011;10614;53.198;6.570;2022-10-16T00:37:29;2.20;;;0.95;;
20908;SDS011;10614;53.198;6.570;2022-10-16T00:39:31;4.25;;;1.20;;
20908;SDS011;10614;53.198;6.570;2022-10-16T00:41:33;1.92;;;0.75;;
20908;SDS011;10614;53.198;6.570;2022-10-16T00:43:37;3.53;;;0.70;;
20908;SDS011;10614;53.198;6.570;2022-10-16T00:45:40;1.65;;;0.80;;
20908;SDS011;10614;53.198;6.570;2022-10-16T00:47:44;2.55;;;0.90;;
20908;SDS011;10614;53.198;6.570;2022-10-16T00:49:50;2.10;;;1.08;;
20908;SDS011;10614;53.198;6.570;2022-10-16T00:51:54;2.03;;;1.00;;
20908;SDS011;10614;53.198;6.570;2022-10-16T00:53:56;2.83;;;0.90;;
20908;SDS011;10614;53.198;6.570;2022-10-16T00:55:58;1.50;;;0.80;;
20908;SDS011;10614;53.198;6.570;2022-10-16T00:58:00;2.00;;;0.90;;
20908;SDS011;10614;53.198;6.570;2022-10-16T01:00:05;4.00;;;0.80;;
20908;SDS011;10614;53.198;6.570;2022-10-16T01:02:14;1.98;;;0.60;;
20908;SDS011;10614;53.198;6.570;2022-10-16T01:04:18;2.00;;;0.80;;
20908;SDS011;10614;53.198;6.570;2022-10-16T01:06:23;3.20;;;0.70;;
20908;SDS011;10614;53.198;6.570;2022-10-16T01:08:31;1.08;;;0.57;;
20908;SDS011;10614;53.198;6.570;2022-10-16T01:10:40;0.75;;;0.52;;
20908;SDS011;10614;53.198;6.570;2022-10-16T01:12:50;3.78;;;0.95;;
20908;SDS011;10614;53.198;6.570;2022-10-16T01:14:56;1.38;;;0.50;;
20908;SDS011;10614;53.198;6.570;2022-10-16T01:17:03;1.48;;;0.75;;
20908;SDS011;10614;53.198;6.570;2022-10-16T01:19:12;2.80;;;1.10;;
20908;SDS011;10614;53.198;6.570;2022-10-16T01:21:21;2.95;;;1.02;;
20908;SDS011;10614;53.198;6.570;2022-10-16T01:23:29;2.83;;;0.70;;
20908;SDS011;10614;53.198;6.570;2022-10-16T01:25:49;1.45;;;0.60;;
20908;SDS011;10614;53.198;6.570;2022-10-16T01:28:13;2.15;;;0.77;;
20908;SDS011;10614;53.198;6.570;2022-10-16T01:30:18;1.10;;;0.73;;
20908;SDS011;10614;53.198;6.570;2022-10-16T01:32:28;2.80;;;0.90;;
20908;SDS011;10614;53.198;6.570;2022-10-16T01:34:35;3.47;;;0.90;;
20908;SDS011;10614;53.198;6.570;2022-10-16T01:36:44;3.83;;;1.00;;
20908;SDS011;10614;53.198;6.570;2022-10-16T01:38:51;3.15;;;0.50;;
20908;SDS011;10614;53.198;6.570;2022-10-16T01:40:57;2.17;;;0.77;;
20908;SDS011;10614;53.198;6.570;2022-10-16T01:43:02;1.85;;;0.60;;
20908;SDS011;10614;53.198;6.570;2022-10-16T01:45:10;1.85;;;0.77;;
20908;SDS011;10614;53.198;6.570;2022-10-16T01:47:14;4.40;;;1.20;;
20908;SDS011;10614;53.198;6.570;2022-10-16T01:49:16;2.28;;;0.80;;
20908;SDS011;10614;53.198;6.570;2022-10-16T01:51:19;2.17;;;0.73;;
20908;SDS011;10614;53.198;6.570;2022-10-16T01:53:23;4.45;;;1.10;;
20908;SDS011;10614;53.198;6.570;2022-10-16T01:55:27;1.95;;;1.00;;
20908;SDS011;10614;53.198;6.570;2022-10-16T01:59:34;1.80;;;0.90;;
20908;SDS011;10614;53.198;6.570;2022-10-16T02:01:40;1.33;;;0.70;;
20908;SDS011;10614;53.198;6.570;2022-10-16T02:03:44;1.75;;;0.90;;
20908;SDS011;10614;53.198;6.570;2022-10-16T02:05:49;2.38;;;0.85;;
20908;SDS011;10614;53.198;6.570;2022-10-16T02:09:54;2.35;;;0.93;;
20908;SDS011;10614;53.198;6.570;2022-10-16T02:11:56;2.67;;;0.95;;
20908;SDS011;10614;53.198;6.570;2022-10-16T02:14:02;7.22;;;2.42;;
20908;SDS011;10614;53.198;6.570;2022-10-16T02:16:06;4.97;;;2.20;;
20908;SDS011;10614;53.198;6.570;2022-10-16T02:18:09;9.38;;;3.00;;
20908;SDS011;10614;53.198;6.570;2022-10-16T02:20:11;7.25;;;2.90;;
20908;SDS011;10614;53.198;6.570;2022-10-16T02:22:15;8.48;;;3.28;;
20908;SDS011;10614;53.198;6.570;2022-10-16T02:24:20;7.10;;;2.38;;
20908;SDS011;10614;53.198;6.570;2022-10-16T02:26:31;5.68;;;2.08;;
20908;SDS011;10614;53.198;6.570;2022-10-16T02:28:40;2.97;;;1.27;;
20908;SDS011;10614;53.198;6.570;2022-10-16T02:30:46;2.70;;;1.20;;
20908;SDS011;10614;53.198;6.570;2022-10-16T02:32:52;2.08;;;0.95;;
20908;SDS011;10614;53.198;6.570;2022-10-16T02:34:56;7.00;;;1.15;;
20908;SDS011;10614;53.198;6.570;2022-10-16T02:37:01;2.03;;;0.98;;
20908;SDS011;10614;53.198;6.570;2022-10-16T02:39:05;1.95;;;0.90;;
20908;SDS011;10614;53.198;6.570;2022-10-16T02:41:08;2.03;;;0.90;;
20908;SDS011;10614;53.198;6.570;2022-10-16T02:43:10;2.10;;;0.90;;
20908;SDS011;10614;53.198;6.570;2022-10-16T02:45:12;2.85;;;0.80;;
20908;SDS011;10614;53.198;6.570;2022-10-16T02:47:14;1.17;;;0.70;;
20908;SDS011;10614;53.198;6.570;2022-10-16T02:49:16;2.67;;;0.90;;
20908;SDS011;10614;53.198;6.570;2022-10-16T02:51:19;1.58;;;0.82;;
20908;SDS011;10614;53.198;6.570;2022-10-16T02:53:21;4.22;;;0.75;;
20908;SDS011;10614;53.198;6.570;2022-10-16T02:55:22;2.53;;;0.90;;
20908;SDS011;10614;53.198;6.570;2022-10-16T02:57:24;2.97;;;1.13;;
20908;SDS011;10614;53.198;6.570;2022-10-16T02:59:25;3.03;;;0.98;;
20908;SDS011;10614;53.198;6.570;2022-10-16T03:01:27;2.92;;;0.85;;
20908;SDS011;10614;53.198;6.570;2022-10-16T03:03:29;1.70;;;0.70;;
20908;SDS011;10614;53.198;6.570;2022-10-16T03:05:30;2.03;;;0.85;;
20908;SDS011;10614;53.198;6.570;2022-10-16T03:07:33;3.20;;;1.00;;
20908;SDS011;10614;53.198;6.570;2022-10-16T03:09:35;1.95;;;0.82;;
20908;SDS011;10614;53.198;6.570;2022-10-16T03:11:36;2.50;;;0.80;;
20908;SDS011;10614;53.198;6.570;2022-10-16T03:13:38;1.23;;;0.70;;
20908;SDS011;10614;53.198;6.570;2022-10-16T03:15:40;2.20;;;0.90;;
20908;SDS011;10614;53.198;6.570;2022-10-16T03:17:41;1.80;;;0.80;;
20908;SDS011;10614;53.198;6.570;2022-10-16T03:19:43;1.67;;;0.68;;
20908;SDS011;10614;53.198;6.570;2022-10-16T03:21:45;1.83;;;0.80;;
20908;SDS011;10614;53.198;6.570;2022-10-16T03:23:48;2.58;;;0.90;;
20908;SDS011;10614;53.198;6.570;2022-10-16T03:25:49;2.05;;;0.85;;
20908;SDS011;10614;53.198;6.570;2022-10-16T03:27:51;1.20;;;0.70;;
20908;SDS011;10614;53.198;6.570;2022-10-16T03:29:53;1.88;;;0.70;;
20908;SDS011;10614;53.198;6.570;2022-10-16T03:31:54;2.70;;;0.80;;
20908;SDS011;10614;53.198;6.570;2022-10-16T03:33:56;1.60;;;0.85;;
20908;SDS011;10614;53.198;6.570;2022-10-16T03:35:58;3.88;;;0.80;;
20908;SDS011;10614;53.198;6.570;2022-10-16T03:38:00;2.08;;;0.57;;
20908;SDS011;10614;53.198;6.570;2022-10-16T03:40:03;3.05;;;0.82;;
20908;SDS011;10614;53.198;6.570;2022-10-16T03:42:05;1.60;;;0.70;;
20908;SDS011;10614;53.198;6.570;2022-10-16T03:44:07;2.25;;;0.75;;
20908;SDS011;10614;53.198;6.570;2022-10-16T03:46:08;1.10;;;0.60;;
20908;SDS011;10614;53.198;6.570;2022-10-16T03:48:10;2.47;;;1.08;;
20908;SDS011;10614;53.198;6.570;2022-10-16T03:50:12;1.45;;;0.85;;
20908;SDS011;10614;53.198;6.570;2022-10-16T03:52:14;2.83;;;0.82;;
20908;SDS011;10614;53.198;6.570;2022-10-16T03:54:15;1.92;;;0.77;;
20908;SDS011;10614;53.198;6.570;2022-10-16T03:56:18;1.67;;;1.00;;
20908;SDS011;10614;53.198;6.570;2022-10-16T03:58:20;3.00;;;0.80;;
20908;SDS011;10614;53.198;6.570;2022-10-16T04:00:21;2.03;;;0.77;;
20908;SDS011;10614;53.198;6.570;2022-10-16T04:02:23;2.67;;;1.00;;
20908;SDS011;10614;53.198;6.570;2022-10-16T04:04:24;2.13;;;0.98;;
20908;SDS011;10614;53.198;6.570;2022-10-16T04:06:26;1.10;;;0.60;;
20908;SDS011;10614;53.198;6.570;2022-10-16T04:08:28;3.15;;;0.98;;
20908;SDS011;10614;53.198;6.570;2022-10-16T04:10:30;2.15;;;0.93;;
20908;SDS011;10614;53.198;6.570;2022-10-16T04:12:33;3.00;;;0.90;;
20908;SDS011;10614;53.198;6.570;2022-10-16T04:14:34;5.15;;;1.25;;
20908;SDS011;10614;53.198;6.570;2022-10-16T04:16:36;2.33;;;1.00;;
20908;SDS011;10614;53.198;6.570;2022-10-16T04:18:38;2.97;;;1.20;;
20908;SDS011;10614;53.198;6.570;2022-10-16T04:20:40;1.60;;;0.90;;
20908;SDS011;10614;53.198;6.570;2022-10-16T04:22:41;1.67;;;0.80;;
20908;SDS011;10614;53.198;6.570;2022-10-16T04:24:43;2.10;;;1.00;;
20908;SDS011;10614;53.198;6.570;2022-10-16T04:26:45;1.35;;;0.80;;
20908;SDS011;10614;53.198;6.570;2022-10-16T04:28:48;2.53;;;0.93;;
20908;SDS011;10614;53.198;6.570;2022-10-16T04:30:49;2.15;;;1.20;;
20908;SDS011;10614;53.198;6.570;2022-10-16T04:32:51;2.00;;;0.90;;
20908;SDS011;10614;53.198;6.570;2022-10-16T04:34:53;2.95;;;1.10;;
20908;SDS011;10614;53.198;6.570;2022-10-16T04:36:55;3.75;;;1.40;;
20908;SDS011;10614;53.198;6.570;2022-10-16T04:38:56;2.97;;;0.85;;
20908;SDS011;10614;53.198;6.570;2022-10-16T04:40:58;1.20;;;0.70;;
20908;SDS011;10614;53.198;6.570;2022-10-16T04:42:59;1.73;;;0.90;;
20908;SDS011;10614;53.198;6.570;2022-10-16T04:45:03;1.77;;;0.90;;
20908;SDS011;10614;53.198;6.570;2022-10-16T04:47:05;2.10;;;0.98;;
20908;SDS011;10614;53.198;6.570;2022-10-16T04:49:07;2.17;;;1.00;;
20908;SDS011;10614;53.198;6.570;2022-10-16T04:51:08;2.63;;;1.10;;
20908;SDS011;10614;53.198;6.570;2022-10-16T04:53:10;1.95;;;1.00;;
20908;SDS011;10614;53.198;6.570;2022-10-16T04:55:12;1.42;;;0.85;;
20908;SDS011;10614;53.198;6.570;2022-10-16T04:57:14;1.60;;;0.70;;
20908;SDS011;10614;53.198;6.570;2022-10-16T04:59:16;1.85;;;0.88;;
20908;SDS011;10614;53.198;6.570;2022-10-16T05:01:20;2.83;;;0.90;;
20908;SDS011;10614;53.198;6.570;2022-10-16T05:03:21;1.98;;;0.90;;
20908;SDS011;10614;53.198;6.570;2022-10-16T05:05:23;2.63;;;1.30;;
20908;SDS011;10614;53.198;6.570;2022-10-16T05:07:24;2.55;;;0.82;;
20908;SDS011;10614;53.198;6.570;2022-10-16T05:09:26;2.88;;;1.20;;
20908;SDS011;10614;53.198;6.570;2022-10-16T05:11:28;4.10;;;1.48;;
20908;SDS011;10614;53.198;6.570;2022-10-16T05:13:29;4.47;;;1.10;;
20908;SDS011;10614;53.198;6.570;2022-10-16T05:15:31;4.07;;;0.95;;
20908;SDS011;10614;53.198;6.570;2022-10-16T05:17:34;3.10;;;1.10;;
20908;SDS011;10614;53.198;6.570;2022-10-16T05:19:35;1.08;;;0.70;;
20908;SDS011;10614;53.198;6.570;2022-10-16T05:21:37;1.60;;;1.00;;
20908;SDS011;10614;53.198;6.570;2022-10-16T05:23:39;2.13;;;1.00;;
20908;SDS011;10614;53.198;6.570;2022-10-16T05:25:40;2.92;;;0.80;;
20908;SDS011;10614;53.198;6.570;2022-10-16T05:27:42;2.72;;;1.10;;
20908;SDS011;10614;53.198;6.570;2022-10-16T05:29:44;3.58;;;0.95;;
20908;SDS011;10614;53.198;6.570;2022-10-16T05:31:46;2.30;;;0.93;;
20908;SDS011;10614;53.198;6.570;2022-10-16T05:36:00;2.17;;;1.20;;
20908;SDS011;10614;53.198;6.570;2022-10-16T05:38:03;1.70;;;0.88;;
20908;SDS011;10614;53.198;6.570;2022-10-16T05:40:05;2.75;;;1.23;;
20908;SDS011;10614;53.198;6.570;2022-10-16T05:42:07;4.95;;;1.30;;
20908;SDS011;10614;53.198;6.570;2022-10-16T05:44:09;1.52;;;1.00;;
20908;SDS011;10614;53.198;6.570;2022-10-16T05:46:10;7.85;;;1.42;;
20908;SDS011;10614;53.198;6.570;2022-10-16T05:48:12;4.25;;;1.40;;
20908;SDS011;10614;53.198;6.570;2022-10-16T05:50:15;1.77;;;1.15;;
20908;SDS011;10614;53.198;6.570;2022-10-16T05:52:17;2.70;;;1.10;;
20908;SDS011;10614;53.198;6.570;2022-10-16T05:54:18;2.63;;;1.35;;
20908;SDS011;10614;53.198;6.570;2022-10-16T05:56:20;2.85;;;1.02;;
20908;SDS011;10614;53.198;6.570;2022-10-16T05:58:22;4.45;;;1.20;;
20908;SDS011;10614;53.198;6.570;2022-10-16T06:00:24;2.78;;;1.13;;
20908;SDS011;10614;53.198;6.570;2022-10-16T06:02:25;3.55;;;1.20;;
20908;SDS011;10614;53.198;6.570;2022-10-16T06:04:27;2.78;;;1.40;;
20908;SDS011;10614;53.198;6.570;2022-10-16T06:06:30;2.10;;;1.08;;
20908;SDS011;10614;53.198;6.570;2022-10-16T06:08:32;2.63;;;1.20;;
20908;SDS011;10614;53.198;6.570;2022-10-16T06:10:33;2.15;;;1.05;;
20908;SDS011;10614;53.198;6.570;2022-10-16T06:12:35;2.65;;;1.25;;
20908;SDS011;10614;53.198;6.570;2022-10-16T06:14:36;2.65;;;1.20;;
20908;SDS011;10614;53.198;6.570;2022-10-16T06:16:38;3.38;;;1.55;;
20908;SDS011;10614;53.198;6.570;2022-10-16T06:18:40;1.30;;;0.90;;
20908;SDS011;10614;53.198;6.570;2022-10-16T06:20:41;3.53;;;1.55;;
20908;SDS011;10614;53.198;6.570;2022-10-16T06:22:44;4.63;;;1.20;;
20908;SDS011;10614;53.198;6.570;2022-10-16T06:24:46;2.03;;;1.20;;
20908;SDS011;10614;53.198;6.570;2022-10-16T06:26:49;3.63;;;1.55;;
20908;SDS011;10614;53.198;6.570;2022-10-16T06:28:51;4.55;;;1.73;;
20908;SDS011;10614;53.198;6.570;2022-10-16T06:30:58;4.30;;;1.58;;
20908;SDS011;10614;53.198;6.570;2022-10-16T06:33:00;2.92;;;1.25;;
20908;SDS011;10614;53.198;6.570;2022-10-16T06:35:02;2.75;;;1.33;;
20908;SDS011;10614;53.198;6.570;2022-10-16T06:37:03;2.25;;;1.13;;
20908;SDS011;10614;53.198;6.570;2022-10-16T06:39:06;3.78;;;1.48;;
20908;SDS011;10614;53.198;6.570;2022-10-16T06:41:09;2.85;;;1.30;;
20908;SDS011;10614;53.198;6.570;2022-10-16T06:43:12;2.13;;;1.10;;
20908;SDS011;10614;53.198;6.570;2022-10-16T06:45:14;3.10;;;1.38;;
20908;SDS011;10614;53.198;6.570;2022-10-16T06:47:15;7.68;;;1.52;;
20908;SDS011;10614;53.198;6.570;2022-10-16T06:49:17;3.85;;;1.30;;
20908;SDS011;10614;53.198;6.570;2022-10-16T06:51:23;2.40;;;1.20;;
20908;SDS011;10614;53.198;6.570;2022-10-16T06:53:26;2.53;;;1.20;;
20908;SDS011;10614;53.198;6.570;2022-10-16T06:55:30;3.20;;;1.40;;
20908;SDS011;10614;53.198;6.570;2022-10-16T06:57:32;3.45;;;1.23;;
20908;SDS011;10614;53.198;6.570;2022-10-16T06:59:34;2.53;;;1.20;;
20908;SDS011;10614;53.198;6.570;2022-10-16T07:01:35;2.75;;;1.30;;
20908;SDS011;10614;53.198;6.570;2022-10-16T07:03:37;3.70;;;1.30;;
20908;SDS011;10614;53.198;6.570;2022-10-16T07:05:39;1.70;;;1.13;;
20908;SDS011;10614;53.198;6.570;2022-10-16T07:07:42;2.47;;;1.48;;
20908;SDS011;10614;53.198;6.570;2022-10-16T07:09:43;2.92;;;1.27;;
20908;SDS011;10614;53.198;6.570;2022-10-16T07:11:46;2.28;;;0.90;;
20908;SDS011;10614;53.198;6.570;2022-10-16T07:13:48;3.17;;;1.30;;
20908;SDS011;10614;53.198;6.570;2022-10-16T07:15:50;5.05;;;1.33;;
20908;SDS011;10614;53.198;6.570;2022-10-16T07:17:52;2.30;;;1.33;;
20908;SDS011;10614;53.198;6.570;2022-10-16T07:19:54;4.82;;;1.58;;
20908;SDS011;10614;53.198;6.570;2022-10-16T07:21:55;2.65;;;1.20;;
20908;SDS011;10614;53.198;6.570;2022-10-16T07:23:58;3.10;;;1.20;;
20908;SDS011;10614;53.198;6.570;2022-10-16T07:26:01;4.25;;;1.48;;
20908;SDS011;10614;53.198;6.570;2022-10-16T07:28:04;2.25;;;1.38;;
20908;SDS011;10614;53.198;6.570;2022-10-16T07:30:06;2.72;;;1.05;;
20908;SDS011;10614;53.198;6.570;2022-10-16T07:32:08;2.45;;;1.10;;
20908;SDS011;10614;53.198;6.570;2022-10-16T07:34:11;2.53;;;1.20;;
20908;SDS011;10614;53.198;6.570;2022-10-16T07:36:14;2.72;;;1.00;;
20908;SDS011;10614;53.198;6.570;2022-10-16T07:38:17;2.78;;;1.20;;
20908;SDS011;10614;53.198;6.570;2022-10-16T07:40:18;2.95;;;1.10;;
20908;SDS011;10614;53.198;6.570;2022-10-16T07:42:20;3.40;;;1.67;;
20908;SDS011;10614;53.198;6.570;2022-10-16T07:44:23;1.70;;;0.80;;
20908;SDS011;10614;53.198;6.570;2022-10-16T07:46:25;2.47;;;1.40;;
20908;SDS011;10614;53.198;6.570;2022-10-16T07:48:28;3.47;;;1.45;;
20908;SDS011;10614;53.198;6.570;2022-10-16T07:50:31;1.90;;;1.07;;
20908;SDS011;10614;53.198;6.570;2022-10-16T07:52:33;1.70;;;1.08;;
20908;SDS011;10614;53.198;6.570;2022-10-16T07:54:34;2.15;;;1.17;;
20908;SDS011;10614;53.198;6.570;2022-10-16T07:56:36;1.83;;;0.98;;
20908;SDS011;10614;53.198;6.570;2022-10-16T07:58:38;1.92;;;0.85;;
20908;SDS011;10614;53.198;6.570;2022-10-16T08:00:41;2.58;;;1.27;;
20908;SDS011;10614;53.198;6.570;2022-10-16T08:02:42;2.78;;;1.30;;
20908;SDS011;10614;53.198;6.570;2022-10-16T08:04:46;3.30;;;1.48;;
20908;SDS011;10614;53.198;6.570;2022-10-16T08:06:47;2.53;;;0.95;;
20908;SDS011;10614;53.198;6.570;2022-10-16T08:08:49;1.85;;;1.27;;
20908;SDS011;10614;53.198;6.570;2022-10-16T08:10:51;3.83;;;1.63;;
20908;SDS011;10614;53.198;6.570;2022-10-16T08:12:53;3.72;;;1.98;;
20908;SDS011;10614;53.198;6.570;2022-10-16T08:14:55;4.43;;;2.17;;
20908;SDS011;10614;53.198;6.570;2022-10-16T08:16:58;3.20;;;1.52;;
20908;SDS011;10614;53.198;6.570;2022-10-16T08:19:02;5.80;;;1.60;;
20908;SDS011;10614;53.198;6.570;2022-10-16T08:21:04;2.85;;;1.27;;
20908;SDS011;10614;53.198;6.570;2022-10-16T08:23:07;4.13;;;1.63;;
20908;SDS011;10614;53.198;6.570;2022-10-16T08:25:10;4.38;;;1.42;;
20908;SDS011;10614;53.198;6.570;2022-10-16T08:27:11;2.35;;;1.10;;
20908;SDS011;10614;53.198;6.570;2022-10-16T08:29:13;3.42;;;1.35;;
20908;SDS011;10614;53.198;6.570;2022-10-16T08:31:15;2.58;;;1.33;;
20908;SDS011;10614;53.198;6.570;2022-10-16T08:33:18;2.90;;;1.35;;
20908;SDS011;10614;53.198;6.570;2022-10-16T08:35:20;5.57;;;1.65;;
20908;SDS011;10614;53.198;6.570;2022-10-16T08:37:22;3.22;;;1.40;;
20908;SDS011;10614;53.198;6.570;2022-10-16T08:39:23;3.60;;;1.33;;
20908;SDS011;10614;53.198;6.570;2022-10-16T08:44:04;4.85;;;1.05;;
20908;SDS011;10614;53.198;6.570;2022-10-16T08:46:22;2.33;;;1.30;;
20908;SDS011;10614;53.198;6.570;2022-10-16T08:48:38;3.00;;;1.20;;
20908;SDS011;10614;53.198;6.570;2022-10-16T08:50:45;3.08;;;1.33;;
20908;SDS011;10614;53.198;6.570;2022-10-16T08:52:48;1.77;;;0.60;;
20908;SDS011;10614;53.198;6.570;2022-10-16T08:54:51;2.80;;;1.00;;
20908;SDS011;10614;53.198;6.570;2022-10-16T08:56:56;4.22;;;1.10;;
20908;SDS011;10614;53.198;6.570;2022-10-16T08:59:01;3.38;;;0.93;;
20908;SDS011;10614;53.198;6.570;2022-10-16T09:01:10;3.50;;;1.00;;
20908;SDS011;10614;53.198;6.570;2022-10-16T09:03:16;7.38;;;1.30;;
20908;SDS011;10614;53.198;6.570;2022-10-16T09:05:30;3.13;;;1.10;;
20908;SDS011;10614;53.198;6.570;2022-10-16T09:07:49;4.20;;;1.00;;
20908;SDS011;10614;53.198;6.570;2022-10-16T09:10:02;1.92;;;1.00;;
20908;SDS011;10614;53.198;6.570;2022-10-16T09:12:14;3.28;;;1.23;;
20908;SDS011;10614;53.198;6.570;2022-10-16T09:14:26;4.68;;;1.05;;
20908;SDS011;10614;53.198;6.570;2022-10-16T09:16:42;2.60;;;1.05;;
20908;SDS011;10614;53.198;6.570;2022-10-16T09:18:50;2.25;;;1.20;;
20908;SDS011;10614;53.198;6.570;2022-10-16T09:21:01;2.00;;;0.93;;
20908;SDS011;10614;53.198;6.570;2022-10-16T09:23:16;3.33;;;0.98;;
20908;SDS011;10614;53.198;6.570;2022-10-16T09:25:20;4.07;;;1.42;;
20908;SDS011;10614;53.198;6.570;2022-10-16T09:27:22;4.55;;;0.90;;
20908;SDS011;10614;53.198;6.570;2022-10-16T09:29:24;2.35;;;1.02;;
20908;SDS011;10614;53.198;6.570;2022-10-16T09:31:26;2.50;;;0.93;;
20908;SDS011;10614;53.198;6.570;2022-10-16T09:33:28;3.15;;;1.20;;
20908;SDS011;10614;53.198;6.570;2022-10-16T09:35:35;4.13;;;1.05;;
20908;SDS011;10614;53.198;6.570;2022-10-16T09:37:41;4.75;;;1.38;;
20908;SDS011;10614;53.198;6.570;2022-10-16T09:39:45;5.03;;;1.40;;
20908;SDS011;10614;53.198;6.570;2022-10-16T09:41:48;7.40;;;1.35;;
20908;SDS011;10614;53.198;6.570;2022-10-16T09:43:52;4.93;;;1.38;;
20908;SDS011;10614;53.198;6.570;2022-10-16T09:45:57;3.25;;;1.30;;
20908;SDS011;10614;53.198;6.570;2022-10-16T09:48:01;5.35;;;1.60;;
20908;SDS011;10614;53.198;6.570;2022-10-16T09:50:19;8.75;;;1.42;;
20908;SDS011;10614;53.198;6.570;2022-10-16T09:52:24;9.85;;;1.65;;
20908;SDS011;10614;53.198;6.570;2022-10-16T09:54:27;5.30;;;1.15;;
20908;SDS011;10614;53.198;6.570;2022-10-16T09:56:29;7.03;;;1.50;;
20908;SDS011;10614;53.198;6.570;2022-10-16T09:58:32;6.25;;;1.40;;
20908;SDS011;10614;53.198;6.570;2022-10-16T10:00:34;5.85;;;1.25;;
20908;SDS011;10614;53.198;6.570;2022-10-16T10:02:36;5.30;;;1.63;;
20908;SDS011;10614;53.198;6.570;2022-10-16T10:04:40;5.45;;;1.48;;
20908;SDS011;10614;53.198;6.570;2022-10-16T10:06:46;11.40;;;2.95;;
20908;SDS011;10614;53.198;6.570;2022-10-16T10:08:52;2.90;;;1.10;;
20908;SDS011;10614;53.198;6.570;2022-10-16T10:10:57;8.02;;;1.70;;
20908;SDS011;10614;53.198;6.570;2022-10-16T10:12:58;8.10;;;1.20;;
20908;SDS011;10614;53.198;6.570;2022-10-16T10:15:03;3.55;;;0.85;;
20908;SDS011;10614;53.198;6.570;2022-10-16T10:17:14;7.25;;;1.52;;
20908;SDS011;10614;53.198;6.570;2022-10-16T10:19:18;4.22;;;1.20;;
20908;SDS011;10614;53.198;6.570;2022-10-16T10:21:21;6.13;;;1.65;;
20908;SDS011;10614;53.198;6.570;2022-10-16T10:23:23;8.85;;;1.15;;
20908;SDS011;10614;53.198;6.570;2022-10-16T10:25:35;9.55;;;1.48;;
20908;SDS011;10614;53.198;6.570;2022-10-16T10:30:34;5.72;;;1.17;;
20908;SDS011;10614;53.198;6.570;2022-10-16T10:32:42;7.88;;;1.58;;
20908;SDS011;10614;53.198;6.570;2022-10-16T10:35:01;2.22;;;0.85;;
20908;SDS011;10614;53.198;6.570;2022-10-16T10:37:18;4.38;;;0.70;;
20908;SDS011;10614;53.198;6.570;2022-10-16T10:39:31;7.05;;;1.23;;
20908;SDS011;10614;53.198;6.570;2022-10-16T10:41:52;4.07;;;0.90;;
20908;SDS011;10614;53.198;6.570;2022-10-16T10:44:21;2.92;;;0.82;;
20908;SDS011;10614;53.198;6.570;2022-10-16T10:46:34;7.07;;;1.40;;
20908;SDS011;10614;53.198;6.570;2022-10-16T10:48:50;6.03;;;1.33;;
20908;SDS011;10614;53.198;6.570;2022-10-16T10:51:04;7.23;;;1.10;;
20908;SDS011;10614;53.198;6.570;2022-10-16T10:53:14;6.90;;;1.33;;
20908;SDS011;10614;53.198;6.570;2022-10-16T10:57:34;8.93;;;1.17;;
20908;SDS011;10614;53.198;6.570;2022-10-16T11:00:07;6.65;;;1.10;;
20908;SDS011;10614;53.198;6.570;2022-10-16T11:02:21;6.32;;;1.20;;
20908;SDS011;10614;53.198;6.570;2022-10-16T11:04:31;7.47;;;1.35;;
20908;SDS011;10614;53.198;6.570;2022-10-16T11:06:42;8.27;;;1.33;;
20908;SDS011;10614;53.198;6.570;2022-10-16T11:08:50;8.60;;;0.80;;
20908;SDS011;10614;53.198;6.570;2022-10-16T11:10:57;5.50;;;0.95;;
20908;SDS011;10614;53.198;6.570;2022-10-16T11:13:06;10.65;;;1.30;;
20908;SDS011;10614;53.198;6.570;2022-10-16T11:15:20;4.90;;;0.80;;
20908;SDS011;10614;53.198;6.570;2022-10-16T11:17:27;4.78;;;0.95;;
20908;SDS011;10614;53.198;6.570;2022-10-16T11:19:34;7.28;;;1.08;;
20908;SDS011;10614;53.198;6.570;2022-10-16T11:21:43;5.70;;;0.90;;
20908;SDS011;10614;53.198;6.570;2022-10-16T11:23:51;6.35;;;1.35;;
20908;SDS011;10614;53.198;6.570;2022-10-16T11:25:59;12.43;;;1.50;;
20908;SDS011;10614;53.198;6.570;2022-10-16T11:28:05;4.20;;;1.00;;
20908;SDS011;10614;53.198;6.570;2022-10-16T11:30:14;4.53;;;0.90;;
20908;SDS011;10614;53.198;6.570;2022-10-16T11:32:22;3.58;;;0.70;;
20908;SDS011;10614;53.198;6.570;2022-10-16T11:34:28;3.38;;;0.95;;
20908;SDS011;10614;53.198;6.570;2022-10-16T11:36:37;4.45;;;0.63;;
20908;SDS011;10614;53.198;6.570;2022-10-16T11:38:43;6.20;;;1.05;;
20908;SDS011;10614;53.198;6.570;2022-10-16T11:40:50;5.57;;;0.98;;
20908;SDS011;10614;53.198;6.570;2022-10-16T11:42:58;6.97;;;1.95;;
20908;SDS011;10614;53.198;6.570;2022-10-16T11:45:08;1.85;;;0.63;;
20908;SDS011;10614;53.198;6.570;2022-10-16T11:47:27;4.22;;;0.60;;
20908;SDS011;10614;53.198;6.570;2022-10-16T11:49:35;8.32;;;1.20;;
20908;SDS011;10614;53.198;6.570;2022-10-16T11:51:39;4.00;;;1.00;;
20908;SDS011;10614;53.198;6.570;2022-10-16T11:53:45;4.30;;;0.70;;
20908;SDS011;10614;53.198;6.570;2022-10-16T11:55:55;6.57;;;1.00;;
20908;SDS011;10614;53.198;6.570;2022-10-16T11:57:57;4.60;;;0.70;;
20908;SDS011;10614;53.198;6.570;2022-10-16T12:00:05;4.50;;;1.10;;
20908;SDS011;10614;53.198;6.570;2022-10-16T12:04:45;7.53;;;0.80;;
20908;SDS011;10614;53.198;6.570;2022-10-16T12:06:54;8.07;;;1.15;;
20908;SDS011;10614;53.198;6.570;2022-10-16T12:09:01;6.05;;;1.27;;
20908;SDS011;10614;53.198;6.570;2022-10-16T12:11:07;4.82;;;0.93;;
20908;SDS011;10614;53.198;6.570;2022-10-16T12:15:32;4.72;;;0.90;;
20908;SDS011;10614;53.198;6.570;2022-10-16T12:17:36;5.57;;;1.00;;
20908;SDS011;10614;53.198;6.570;2022-10-16T12:19:40;9.15;;;1.63;;
20908;SDS011;10614;53.198;6.570;2022-10-16T12:21:42;7.82;;;1.00;;
20908;SDS011;10614;53.198;6.570;2022-10-16T12:23:48;5.72;;;0.85;;
20908;SDS011;10614;53.198;6.570;2022-10-16T12:25:53;6.38;;;0.90;;
20908;SDS011;10614;53.198;6.570;2022-10-16T12:27:57;7.30;;;1.05;;
20908;SDS011;10614;53.198;6.570;2022-10-16T12:30:02;5.97;;;0.90;;
20908;SDS011;10614;53.198;6.570;2022-10-16T12:32:20;7.55;;;1.00;;
20908;SDS011;10614;53.198;6.570;2022-10-16T12:34:28;3.55;;;0.82;;
20908;SDS011;10614;53.198;6.570;2022-10-16T12:36:33;7.65;;;1.40;;
20908;SDS011;10614;53.198;6.570;2022-10-16T12:38:37;7.80;;;1.10;;
20908;SDS011;10614;53.198;6.570;2022-10-16T12:40:47;6.15;;;0.85;;
20908;SDS011;10614;53.198;6.570;2022-10-16T12:42:58;8.00;;;1.00;;
20908;SDS011;10614;53.198;6.570;2022-10-16T12:45:00;2.92;;;0.70;;
20908;SDS011;10614;53.198;6.570;2022-10-16T12:47:02;2.28;;;0.55;;
20908;SDS011;10614;53.198;6.570;2022-10-16T12:49:17;5.70;;;1.00;;